Date,TemperatureHighF,TemperatureAvgF,TemperatureLowF,DewpointHighF,DewpointAvgF,DewpointLowF,HumidityHigh,HumidityAvg,HumidityLow,PressureMaxIn,PressureMinIn,WindSpeedMaxMPH,WindSpeedAvgMPH,GustSpeedMaxMPH,PrecipitationSumIn
2013-12-1,54.0,45.0,39.6,44.5,41.2,37.6,95,87,64,30.56,30.35,11,4,15,0.00
2013-12-2,45.9,44.7,43.9,43.2,39.4,36.5,92,82,73,30.56,30.30,14,7,24,0.01
2013-12-3,48.0,46.1,37.6,45.6,42.4,33.5,92,87,73,30.30,30.09,20,10,24,0.09
2013-12-4,44.2,39.1,34.7,39.1,33.7,30.7,89,81,67,30.27,30.03,23,8,28,0.20
2013-12-5,47.5,39.5,31.6,43.5,31.0,17.4,89,72,48,30.11,29.43,32,14,49,13.68
2013-12-6,37.6,34.4,32.5,29.8,23.5,17.4,89,65,49,30.30,30.11,9,3,14,0.00
2013-12-7,47.7,39.8,32.4,45.1,37.7,29.7,97,92,86,30.19,29.91,18,7,30,0.15
2013-12-8,53.8,50.2,47.3,50.0,47.1,43.0,93,89,82,29.94,29.83,20,15,30,0.71
2013-12-9,53.8,50.6,46.9,49.1,45.5,39.4,92,83,70,30.17,29.93,21,12,30,0.11
2013-12-10,53.8,50.7,48.4,47.2,43.0,37.9,84,75,67,30.19,30.11,20,11,30,0.00
2013-12-11,52.9,47.3,37.4,47.7,41.3,33.6,89,80,68,30.21,30.00,17,6,21,0.00
2013-12-12,54.3,51.4,45.1,51.0,47.6,35.6,94,87,68,29.99,29.89,20,8,25,0.25
2013-12-13,54.1,49.9,42.4,50.0,44.7,35.3,91,82,73,29.90,29.68,19,10,29,0.13
2013-12-14,51.6,45.9,38.8,47.3,40.1,-59.0,88,80,68,29.89,29.39,30,15,50,2.14
2013-12-15,50.4,43.7,38.7,43.8,38.5,34.0,91,82,68,29.83,29.50,23,10,31,0.39
2013-12-16,48.0,42.3,38.8,41.6,35.5,32.5,85,77,67,29.94,29.39,18,11,31,0.22
2013-12-17,45.7,42.0,34.9,37.7,34.3,29.8,85,74,65,30.06,29.72,17,10,27,0.00
2013-12-18,51.6,46.2,41.9,46.0,40.6,32.1,90,81,62,29.72,28.75,50,14,53,3.51
2013-12-19,43.9,37.6,33.6,36.4,32.8,29.1,89,83,65,29.48,28.80,0,0,0,0.00
2013-12-20,50.4,42.8,36.5,48.3,39.8,32.3,95,89,78,29.72,29.34,0,0,0,0.01
2013-12-21,46.8,44.1,42.1,43.2,39.5,37.2,93,84,71,29.47,29.26,0,0,0,0.02
2013-12-22,43.0,43.0,43.0,39.7,39.7,39.7,88,88,88,29.51,29.29,0,0,0,0.00
2013-12-23,43.0,43.0,43.0,39.7,39.7,39.7,88,88,88,29.50,29.21,0,0,0,0.00
2013-12-24,50.4,45.5,42.3,48.3,41.1,37.3,95,85,71,30.15,29.94,0,0,0,0.04
2013-12-25,43.0,43.0,43.0,39.4,39.4,39.4,87,87,87,30.11,29.93,0,0,0,0.00
2013-12-26,43.0,40.3,37.2,39.4,35.2,31.9,87,82,73,30.18,28.57,13,5,23,0.01
2013-12-27,45.1,43.0,38.3,41.7,38.6,34.0,90,84,76,28.71,28.13,28,19,41,0.37
2013-12-28,42.3,40.9,38.7,38.7,35.6,32.8,92,81,74,30.17,28.71,25,12,35,0.02
2013-12-29,44.6,40.8,38.1,41.1,37.0,32.2,94,86,73,30.17,29.41,22,8,30,0.22
2013-12-30,46.4,42.0,37.4,44.8,39.5,34.8,95,91,85,29.57,29.28,20,5,27,0.60
2013-12-31,44.8,41.0,36.7,39.8,36.1,32.8,94,83,73,29.55,29.19,18,6,24,0.06